Time;durP1;ratioP1;P1;durP2;ratioP2;P2;SDS_P1;SDS_P2;PMS_P1;PMS_P2;Temp;Humidity;BMP_temperature;BMP_pressure;BME280_temperature;BME280_humidity;BME280_pressure;Samples;Min_cycle;Max_cycle;Signal;HPM_P1;HPM_P2
2022/05/22 00:01:22;;;;;;;7.35;5.05;;;;;;;25.68;55.63;100818.13;5112119;28;20047;-78
2022/05/22 00:03:50;;;;;;;7.80;5.85;;;;;;;25.70;55.68;100820.69;5114191;28;20486;-78
2022/05/22 00:06:17;;;;;;;6.78;5.53;;;;;;;25.68;55.83;100814.56;5114633;28;20043;-78
2022/05/22 00:08:44;;;;;;;6.78;5.43;;;;;;;25.68;55.69;100822.69;5114395;28;20356;-78
2022/05/22 00:11:12;;;;;;;5.97;5.07;;;;;;;25.68;55.71;100817.28;5114066;28;20043;-78
2022/05/22 00:13:39;;;;;;;5.85;5.18;;;;;;;25.67;55.64;100815.59;5113784;28;20057;-78
2022/05/22 00:18:52;;;;;;;8.90;6.07;;;;;;;25.68;55.62;100818.13;5114397;28;20055;-78
2022/05/22 00:21:20;;;;;;;7.85;6.15;;;;;;;25.69;55.69;100810.84;5113708;28;20040;-78
2022/05/22 00:23:47;;;;;;;6.47;5.80;;;;;;;25.67;55.68;100815.59;5113485;28;20055;-77
2022/05/22 00:26:14;;;;;;;6.93;6.22;;;;;;;25.67;55.55;100819.16;5112612;28;20055;-77
2022/05/22 00:28:42;;;;;;;6.10;5.55;;;;;;;25.67;55.55;100815.59;5113918;28;20036;-77
2022/05/22 00:31:10;;;;;;;7.63;6.07;;;;;;;25.67;55.72;100807.47;5113512;28;20054;-77
2022/05/22 00:33:38;;;;;;;5.70;5.07;;;;;;;25.67;55.69;100802.03;5111838;28;20070;-78
2022/05/22 00:36:05;;;;;;;6.80;6.07;;;;;;;25.67;55.83;100804.75;5111592;28;20047;-77
2022/05/22 00:38:33;;;;;;;7.25;5.35;;;;;;;25.68;55.79;100812.69;5113906;28;20096;-77
2022/05/22 00:41:02;;;;;;;6.07;5.43;;;;;;;25.67;55.62;100804.75;5111306;28;20051;-77
2022/05/22 00:43:34;;;;;;;6.38;5.78;;;;;;;25.67;55.69;100807.47;5111763;28;20499;-77
2022/05/22 00:46:04;;;;;;;7.40;5.93;;;;;;;25.67;55.64;100804.75;5113864;28;20070;-77
2022/05/22 00:48:33;;;;;;;7.00;5.80;;;;;;;25.68;55.71;100806.44;5113617;28;20039;-77
2022/05/22 00:51:12;;;;;;;7.28;6.00;;;;;;;25.67;55.70;100805.59;5113306;28;20501;-77
2022/05/22 00:53:48;;;;;;;6.50;5.72;;;;;;;25.67;55.55;100804.75;5113822;28;20050;-77
2022/05/22 00:56:20;;;;;;;6.28;5.78;;;;;;;25.67;55.71;100802.88;5111572;28;20052;-77
2022/05/22 00:58:50;;;;;;;7.13;5.80;;;;;;;25.65;55.56;100803.06;5111638;28;20048;-77
2022/05/22 01:01:17;;;;;;;6.43;5.75;;;;;;;25.67;55.77;100805.59;5111484;28;20052;-77
2022/05/22 01:03:45;;;;;;;7.38;5.68;;;;;;;25.65;55.75;100797.66;5111340;28;20402;-77
2022/05/22 01:06:24;;;;;;;6.75;5.90;;;;;;;25.65;55.71;100797.66;5111547;28;20055;-77
2022/05/22 01:08:52;;;;;;;6.78;5.65;;;;;;;25.66;55.64;100809.34;5111546;28;20044;-77
2022/05/22 01:11:28;;;;;;;7.53;5.72;;;;;;;25.67;55.82;100802.03;5111452;28;20079;-77
2022/05/22 01:14:02;;;;;;;8.57;6.45;;;;;;;25.67;55.64;100807.47;5112905;28;20050;-77
2022/05/22 01:16:32;;;;;;;6.75;6.05;;;;;;;25.65;55.82;100803.06;5115439;28;20499;-77
2022/05/22 01:18:59;;;;;;;7.10;5.93;;;;;;;25.65;55.64;100807.66;5115355;28;20058;-77
2022/05/22 01:21:34;;;;;;;7.05;6.20;;;;;;;25.66;55.59;100801.19;5115019;28;20055;-77
2022/05/22 01:24:02;;;;;;;7.13;6.40;;;;;;;25.66;55.60;100798.47;5115267;28;20054;-77
2022/05/22 01:26:33;;;;;;;7.63;6.10;;;;;;;25.67;55.52;100804.75;5115128;28;20060;-77
2022/05/22 01:29:14;;;;;;;6.28;5.72;;;;;;;25.66;55.68;100801.19;5099917;28;20060;-77
2022/05/22 01:31:41;;;;;;;7.13;6.00;;;;;;;25.65;56.01;100807.66;5115488;28;20063;-77
2022/05/22 01:34:10;;;;;;;8.05;5.72;;;;;;;25.65;55.69;100803.06;5118214;28;20043;-77
2022/05/22 01:36:38;;;;;;;6.35;5.68;;;;;;;25.65;55.67;100808.50;5116937;28;20051;-77
2022/05/22 01:39:07;;;;;;;7.15;6.45;;;;;;;25.64;55.75;100804.09;5116581;28;20054;-77
2022/05/22 01:41:55;;;;;;;6.93;5.88;;;;;;;25.64;55.88;100812.22;5116535;28;20407;-77
2022/05/22 01:44:23;;;;;;;7.63;6.88;;;;;;;25.65;55.60;100810.34;5115433;28;20051;-77
2022/05/22 01:46:51;;;;;;;6.63;6.03;;;;;;;25.64;55.74;100808.63;5114750;28;20052;-77
2022/05/22 01:49:19;;;;;;;7.32;6.60;;;;;;;25.63;55.67;100810.50;5116719;28;20036;-77
2022/05/22 01:51:47;;;;;;;8.07;6.40;;;;;;;25.64;55.58;100800.50;5114929;28;20068;-78
2022/05/22 01:54:14;;;;;;;6.45;5.70;;;;;;;25.64;55.81;100806.81;5114784;28;20089;-78
2022/05/22 01:56:42;;;;;;;7.35;6.63;;;;;;;25.64;55.57;100812.22;5116365;28;20487;-78
2022/05/22 01:59:12;;;;;;;8.80;7.07;;;;;;;25.64;55.58;100811.34;5115250;28;20055;-77
2022/05/22 02:01:47;;;;;;;7.88;7.03;;;;;;;25.64;55.54;100812.22;5114709;28;20052;-77
2022/05/22 02:04:14;;;;;;;8.23;6.32;;;;;;;25.64;55.45;100808.63;5116150;28;20051;-77
2022/05/22 02:09:31;;;;;;;8.07;7.32;;;;;;;25.63;55.43;100805.09;5114418;28;20403;-77
2022/05/22 02:11:58;;;;;;;7.60;6.88;;;;;;;25.63;55.37;100798.81;5116462;28;20371;-77
2022/05/22 02:14:28;;;;;;;7.22;6.03;;;;;;;25.63;55.37;100805.09;5114695;28;20056;-78
2022/05/22 02:17:02;;;;;;;7.47;6.80;;;;;;;25.62;55.47;100795.28;5114738;28;20059;-78
2022/05/22 02:19:29;;;;;;;7.25;6.55;;;;;;;25.62;55.25;100795.28;5114136;28;20066;-77
2022/05/22 02:21:57;;;;;;;7.07;6.13;;;;;;;25.63;55.27;100793.41;5114304;28;20506;-77
2022/05/22 02:24:26;;;;;;;8.63;6.30;;;;;;;25.61;55.33;100785.47;5113935;28;20051;-78
2022/05/22 02:27:06;;;;;;;7.03;6.32;;;;;;;25.61;55.11;100785.47;5114883;28;20471;-78
2022/05/22 02:29:35;;;;;;;7.45;6.63;;;;;;;25.62;55.42;100789.00;5113501;28;20044;-77
2022/05/22 02:32:03;;;;;;;9.15;7.18;;;;;;;25.62;55.42;100778.16;5114411;28;20451;-78
2022/05/22 02:34:31;;;;;;;8.25;6.30;;;;;;;25.61;55.18;100774.63;5097488;28;20052;-77
2022/05/22 02:36:59;;;;;;;7.25;6.35;;;;;;;25.61;55.21;100774.63;5114109;28;20054;-77
2022/05/22 02:39:27;;;;;;;7.82;6.25;;;;;;;25.62;55.24;100776.28;5097240;28;20047;-77
2022/05/22 02:42:04;;;;;;;7.03;6.20;;;;;;;25.62;55.06;100768.16;5113470;28;20044;-78
2022/05/22 02:44:32;;;;;;;6.78;6.10;;;;;;;25.61;55.31;100771.91;5114559;28;20050;-77
2022/05/22 02:47:00;;;;;;;7.07;6.32;;;;;;;25.62;55.19;100770.88;5113846;28;20052;-77
2022/05/22 02:49:27;;;;;;;7.47;6.50;;;;;;;25.62;55.16;100767.31;5113710;28;20044;-77
2022/05/22 02:51:55;;;;;;;7.30;6.20;;;;;;;25.61;54.91;100761.06;5097662;28;20051;-78
2022/05/22 02:54:24;;;;;;;7.13;5.97;;;;;;;25.61;55.17;100761.06;5113555;28;20063;-77
2022/05/22 02:56:58;;;;;;;7.32;6.22;;;;;;;25.60;55.02;100767.50;5097479;28;20052;-77
2022/05/22 02:59:36;;;;;;;6.72;6.10;;;;;;;25.60;55.23;100770.22;5113333;28;20059;-77
2022/05/22 03:02:33;;;;;;;8.43;7.05;;;;;;;25.60;55.10;100770.22;5105892;28;20499;-77
2022/05/22 03:05:01;;;;;;;7.45;6.43;;;;;;;25.61;54.82;100774.63;5113331;28;20491;-77
2022/05/22 03:07:30;;;;;;;10.90;7.18;;;;;;;25.60;55.07;100775.63;5113499;28;20451;-77
2022/05/22 03:10:17;;;;;;;6.70;5.90;;;;;;;25.60;54.96;100777.47;5113667;28;20395;-77
2022/05/22 03:12:46;;;;;;;6.95;6.20;;;;;;;25.60;55.16;100778.34;5113414;28;20509;-77
2022/05/22 03:15:17;;;;;;;;;;;;;;;25.61;54.98;100784.63;5114044;28;20055;-77
2022/05/22 03:17:44;;;;;;;7.30;5.75;;;;;;;25.58;55.11;100779.53;5115324;28;19919;-77
2022/05/22 03:20:12;;;;;;;6.50;5.40;;;;;;;25.60;55.11;100777.47;5112840;28;20051;-77
2022/05/22 03:22:41;;;;;;;6.72;5.78;;;;;;;25.61;54.92;100781.91;5096384;28;20048;-78
2022/05/22 03:25:09;;;;;;;7.55;6.53;;;;;;;25.60;54.97;100783.78;5113034;28;20051;-77
2022/05/22 03:27:37;;;;;;;7.13;6.43;;;;;;;25.60;55.07;100783.78;5113160;28;20407;-77
2022/05/22 03:30:06;;;;;;;8.68;6.35;;;;;;;25.59;55.11;100783.94;5095769;28;20410;-77
2022/05/22 03:32:33;;;;;;;7.85;6.53;;;;;;;25.60;54.99;100782.91;5112637;28;20056;-75
2022/05/22 03:35:01;;;;;;;6.90;6.30;;;;;;;25.59;54.94;100786.63;5113042;28;20047;-75
2022/05/22 03:37:30;;;;;;;10.98;9.00;;;;;;;25.52;54.07;100782.94;5095553;28;20051;-76
2022/05/22 03:39:59;;;;;;;11.30;8.20;;;;;;;25.43;54.25;100776.69;5113042;28;20044;-76
2022/05/22 03:42:27;;;;;;;9.85;7.43;;;;;;;25.43;54.88;100779.41;5113231;28;20052;-77
2022/05/22 03:44:55;;;;;;;10.75;8.38;;;;;;;25.40;54.21;100785.16;5114621;28;20044;-77
2022/05/22 03:47:23;;;;;;;12.68;9.93;;;;;;;25.35;54.05;100782.97;5112350;28;20491;-77
2022/05/22 03:50:04;;;;;;;9.85;8.85;;;;;;;25.33;54.10;100795.03;5112182;28;20047;-75
2022/05/22 03:52:39;;;;;;;11.07;8.63;;;;;;;25.29;53.83;100791.81;5112547;28;20511;-77
2022/05/22 03:55:14;;;;;;;9.95;8.82;;;;;;;25.25;53.85;100782.31;5112054;28;20058;-76
2022/05/22 03:57:47;;;;;;;11.30;9.25;;;;;;;25.23;53.85;100786.22;5112243;28;20047;-76
2022/05/22 04:00:18;;;;;;;10.38;9.30;;;;;;;25.21;54.14;100789.09;5112026;28;20043;-76
2022/05/22 04:02:51;;;;;;;9.60;8.60;;;;;;;25.19;53.93;100793.00;5112816;28;20056;-76
2022/05/22 04:05:20;;;;;;;9.68;8.68;;;;;;;25.15;53.99;100796.03;5095726;28;20051;-76
2022/05/22 04:07:49;;;;;;;11.10;9.20;;;;;;;25.13;54.06;100800.78;5112470;28;20470;-76
2022/05/22 04:10:26;;;;;;;12.85;8.70;;;;;;;25.12;54.26;100799.09;5112489;28;20063;-75
2022/05/22 04:12:53;;;;;;;9.48;8.57;;;;;;;25.14;54.23;100796.22;5112007;28;20383;-75
2022/05/22 04:15:22;;;;;;;11.32;8.15;;;;;;;25.14;54.47;100802.47;5095693;28;20043;-76
2022/05/22 04:17:53;;;;;;;12.43;10.32;;;;;;;25.13;54.54;100803.50;5112340;28;20047;-76
2022/05/22 04:20:23;;;;;;;13.82;9.32;;;;;;;25.09;54.45;100799.44;5111992;28;20048;-76
2022/05/22 04:25:58;;;;;;;12.07;9.30;;;;;;;25.08;54.45;100800.44;5114693;28;20043;-76
2022/05/22 04:28:28;;;;;;;10.18;8.43;;;;;;;25.09;54.58;100801.31;5112881;28;20050;-76
2022/05/22 04:31:05;;;;;;;10.05;8.38;;;;;;;25.09;54.40;100802.16;5112202;28;20047;-76
2022/05/22 04:33:38;;;;;;;11.48;8.70;;;;;;;25.10;54.60;100803.84;5112267;28;20051;-76
2022/05/22 04:36:05;;;;;;;10.98;8.30;;;;;;;25.10;54.55;100800.28;5112024;28;20048;-75
2022/05/22 04:38:33;;;;;;;11.07;8.93;;;;;;;25.10;54.26;100803.00;5111778;28;20364;-76
2022/05/22 04:41:02;;;;;;;11.13;8.82;;;;;;;25.09;54.39;100802.16;5111878;28;20048;-76
2022/05/22 04:43:32;;;;;;;9.50;8.50;;;;;;;25.08;54.56;100800.44;5111670;28;20050;-76
2022/05/22 04:45:59;;;;;;;9.85;8.20;;;;;;;25.09;54.58;100802.16;5111835;28;20457;-76
2022/05/22 04:48:28;;;;;;;11.85;8.73;;;;;;;25.09;54.46;100804.88;5112232;28;20074;-76
2022/05/22 04:51:01;;;;;;;9.98;9.05;;;;;;;25.07;54.24;100806.84;5100489;28;20078;-76
2022/05/22 04:53:50;;;;;;;11.45;8.43;;;;;;;25.06;54.35;100802.44;5095326;28;20063;-76
2022/05/22 04:56:24;;;;;;;11.95;8.80;;;;;;;25.06;54.02;100805.16;5077998;28;20052;-76
2022/05/22 04:58:55;;;;;;;10.13;8.43;;;;;;;25.05;53.92;100805.34;5077659;28;20055;-75
2022/05/22 05:01:25;;;;;;;9.50;8.13;;;;;;;25.04;54.23;100809.91;5062046;28;20052;-76
2022/05/22 05:04:02;;;;;;;9.18;8.20;;;;;;;25.04;54.28;100811.78;5095467;28;20514;-76
2022/05/22 05:06:43;;;;;;;10.77;8.70;;;;;;;25.04;54.23;100806.38;5077613;28;20081;-76
2022/05/22 05:09:31;;;;;;;9.07;8.18;;;;;;;25.02;54.20;100816.50;5095435;28;20059;-76
2022/05/22 05:12:05;;;;;;;8.40;7.60;;;;;;;25.02;54.23;100820.06;5094773;28;20155;-76
2022/05/22 05:14:33;;;;;;;9.65;8.38;;;;;;;25.01;54.25;100826.50;5077520;28;20052;-76
2022/05/22 05:17:00;;;;;;;10.40;8.30;;;;;;;25.00;54.54;100819.41;5077231;28;20063;-76
2022/05/22 05:19:27;;;;;;;9.07;7.70;;;;;;;25.02;54.21;100827.34;5094901;28;20048;-76
2022/05/22 05:21:56;;;;;;;9.50;8.20;;;;;;;25.02;54.02;100830.06;5078330;28;20051;-76
2022/05/22 05:24:23;;;;;;;10.10;8.75;;;;;;;25.01;54.05;100829.22;5077266;28;20044;-76
2022/05/22 05:26:54;;;;;;;12.43;8.18;;;;;;;25.03;53.86;100838.00;5076920;28;20059;-76
2022/05/22 05:29:48;;;;;;;10.38;7.50;;;;;;;25.02;53.68;100830.06;5063945;28;20519;-75
2022/05/22 05:32:20;;;;;;;11.45;7.75;;;;;;;25.03;53.64;100834.44;5114662;28;20047;-76
2022/05/22 05:34:58;;;;;;;9.32;8.10;;;;;;;25.03;53.65;100832.59;5115276;28;20054;-76
2022/05/22 05:37:31;;;;;;;7.90;7.10;;;;;;;25.04;53.58;100842.44;5114934;28;20052;-75
2022/05/22 05:40:09;;;;;;;11.57;7.45;;;;;;;25.06;53.53;100834.97;5115075;28;20406;-76
2022/05/22 05:42:41;;;;;;;10.15;7.72;;;;;;;25.06;53.17;100834.97;5116943;28;20487;-76
2022/05/22 05:45:12;;;;;;;10.05;7.93;;;;;;;25.06;53.36;100824.13;5114946;28;20051;-76
2022/05/22 05:47:48;;;;;;;9.50;7.47;;;;;;;25.07;53.16;100831.22;5115095;28;20051;-76
2022/05/22 05:50:22;;;;;;;8.70;6.75;;;;;;;25.08;52.97;100826.69;5115691;28;20051;-75
2022/05/22 05:52:50;;;;;;;8.30;6.25;;;;;;;25.10;52.68;100830.09;5116655;28;20051;-75
2022/05/22 05:55:37;;;;;;;9.55;5.80;;;;;;;25.10;52.90;100832.78;5123434;28;20054;-76
2022/05/22 05:58:31;;;;;;;10.85;6.43;;;;;;;25.10;52.77;100830.09;5123226;28;20483;-76
2022/05/22 06:01:15;;;;;;;7.30;5.80;;;;;;;25.11;52.62;100831.78;5114330;28;20056;-76
2022/05/22 06:03:44;;;;;;;8.90;6.75;;;;;;;25.11;52.47;100824.47;5114741;28;20084;-76
2022/05/22 06:06:14;;;;;;;6.72;5.15;;;;;;;25.11;52.71;100826.34;5114447;28;20074;-76
2022/05/22 06:08:42;;;;;;;9.05;6.00;;;;;;;25.11;52.65;100827.19;5114245;28;20052;-76
2022/05/22 06:11:32;;;;;;;10.38;5.88;;;;;;;25.11;52.60;100824.47;5114885;28;20047;-76
2022/05/22 06:14:09;;;;;;;7.55;5.38;;;;;;;25.13;52.45;100832.47;5114242;28;20052;-76
2022/05/22 06:16:38;;;;;;;9.13;5.85;;;;;;;25.13;52.53;100824.34;5114481;28;20058;-76
2022/05/22 06:19:09;;;;;;;9.32;5.72;;;;;;;25.14;52.61;100817.91;5113888;28;20410;-76
2022/05/22 06:21:37;;;;;;;8.32;5.22;;;;;;;25.14;52.45;100826.03;5113776;28;20051;-76
2022/05/22 06:24:08;;;;;;;7.22;5.25;;;;;;;25.16;52.37;100826.72;5113817;28;20047;-76
2022/05/22 06:26:54;;;;;;;8.10;5.32;;;;;;;25.16;52.56;100818.59;5122984;28;20059;-76
2022/05/22 06:29:48;;;;;;;6.88;5.18;;;;;;;25.18;52.76;100818.41;5053253;28;20049;-76
2022/05/22 06:32:20;;;;;;;11.25;5.30;;;;;;;25.19;52.61;100822.78;5053562;28;20485;-76
2022/05/22 06:34:59;;;;;;;5.65;4.60;;;;;;;25.20;52.72;100819.06;5052697;28;20060;-76
2022/05/22 06:37:37;;;;;;;6.20;5.47;;;;;;;25.20;52.92;100819.94;5037535;28;20064;-76
2022/05/22 06:40:23;;;;;;;7.78;5.07;;;;;;;25.22;52.90;100825.16;5057613;28;20163;-76
2022/05/22 06:43:08;;;;;;;8.55;5.00;;;;;;;25.23;53.04;100826.84;5060655;28;20072;-77
2022/05/22 06:45:57;;;;;;;8.10;5.55;;;;;;;25.24;52.77;100820.41;5036013;28;20516;-74
2022/05/22 06:48:43;;;;;;;8.88;6.15;;;;;;;25.25;52.91;100814.00;5060557;28;20164;-77
2022/05/22 06:51:36;;;;;;;6.20;5.18;;;;;;;25.25;53.38;100819.41;4974927;28;20065;-76
2022/05/22 06:54:10;;;;;;;6.97;5.43;;;;;;;25.26;53.18;100821.94;4974939;28;20054;-76
2022/05/22 06:57:00;;;;;;;6.18;5.43;;;;;;;25.29;53.37;100818.06;4974910;28;20055;-76
2022/05/22 06:59:38;;;;;;;9.50;5.47;;;;;;;25.30;53.02;100811.63;4974694;28;20131;-77
2022/05/22 07:02:28;;;;;;;10.57;6.38;;;;;;;25.30;53.04;100803.47;4985760;28;20063;-77
2022/05/22 07:05:11;;;;;;;9.27;5.97;;;;;;;25.30;53.15;100807.03;4975394;28;20055;-76
2022/05/22 07:07:57;;;;;;;9.40;5.45;;;;;;;25.31;53.10;100807.88;5052583;28;20064;-76
2022/05/22 07:13:43;;;;;;;9.43;6.32;;;;;;;25.32;53.08;100812.28;5035730;28;20080;-77
2022/05/22 07:16:22;;;;;;;8.57;6.22;;;;;;;25.33;53.06;100805.84;5051905;28;20051;-77
2022/05/22 07:19:18;;;;;;;6.80;5.40;;;;;;;25.34;53.25;100797.53;5052299;28;20113;-76
2022/05/22 07:21:58;;;;;;;8.82;6.15;;;;;;;25.35;53.33;100792.97;5035376;28;20045;-76
2022/05/22 07:24:44;;;;;;;7.18;5.53;;;;;;;25.37;53.43;100785.53;5059832;28;20063;-78
2022/05/22 07:27:34;;;;;;;7.15;6.10;;;;;;;25.38;53.48;100790.75;5030617;28;20164;-76
2022/05/22 07:30:24;;;;;;;8.85;5.32;;;;;;;25.40;53.41;100782.44;5115230;28;20060;-77
2022/05/22 07:33:16;;;;;;;7.38;5.43;;;;;;;25.43;53.53;100787.53;5113682;28;20058;-77
2022/05/22 07:36:14;;;;;;;7.65;5.60;;;;;;;25.44;53.57;100782.94;5099245;28;20055;-77
2022/05/22 07:39:05;;;;;;;8.10;6.35;;;;;;;25.46;53.64;100789.06;5086192;28;20047;-77
2022/05/22 07:42:02;;;;;;;6.82;5.80;;;;;;;25.47;53.34;100786.16;5072553;28;20059;-77
2022/05/22 07:44:30;;;;;;;6.90;5.13;;;;;;;25.49;53.65;100788.72;5072630;28;20047;-77
2022/05/22 07:47:09;;;;;;;7.28;5.43;;;;;;;25.50;53.77;100782.28;5071826;28;20056;-77
2022/05/22 07:52:56;;;;;;;8.45;6.60;;;;;;;25.52;54.32;100770.25;5074763;28;20067;-76
2022/05/22 07:55:29;;;;;;;10.23;7.35;;;;;;;25.53;54.13;100766.50;5078262;28;20044;-77
2022/05/22 07:58:09;;;;;;;10.57;8.13;;;;;;;25.52;54.39;100759.41;5077893;28;20480;-77
2022/05/22 08:00:42;;;;;;;7.65;6.38;;;;;;;25.52;54.31;100756.69;5074059;28;20052;-76
2022/05/22 08:03:16;;;;;;;10.48;7.53;;;;;;;25.53;54.10;100747.53;5071356;28;20139;-76
2022/05/22 08:05:56;;;;;;;9.43;6.97;;;;;;;25.55;54.55;100748.19;5054976;28;20052;-77
2022/05/22 08:08:24;;;;;;;12.23;8.73;;;;;;;25.53;54.20;100750.25;5072850;28;20530;-80
2022/05/22 08:11:10;;;;;;;9.55;8.45;;;;;;;25.53;54.20;100752.94;5078061;28;20174;-82
2022/05/22 08:13:48;;;;;;;9.75;8.70;;;;;;;25.53;54.32;100757.53;5054594;28;20059;-77
2022/05/22 08:16:16;;;;;;;12.85;8.00;;;;;;;25.54;54.32;100756.50;5071808;28;20063;-76
2022/05/22 08:18:55;;;;;;;11.85;8.40;;;;;;;25.51;53.99;100757.69;5090072;28;20415;-75
2022/05/22 08:21:23;;;;;;;11.73;8.52;;;;;;;25.50;53.72;100755.16;5111968;28;20059;-76
2022/05/22 08:23:50;;;;;;;9.27;8.02;;;;;;;25.48;53.69;100758.06;5095524;28;20056;-76
2022/05/22 08:26:26;;;;;;;9.80;8.18;;;;;;;25.49;53.37;100756.19;5113013;28;20058;-75
2022/05/22 08:28:54;;;;;;;13.70;8.30;;;;;;;25.48;53.99;100744.50;5112771;28;20047;-75
2022/05/22 08:31:22;;;;;;;13.63;9.07;;;;;;;25.49;53.87;100738.06;5096546;28;20046;-75
2022/05/22 08:33:53;;;;;;;9.88;7.90;;;;;;;25.50;53.99;100731.63;5112875;28;20043;-78
2022/05/22 08:36:20;;;;;;;11.60;7.72;;;;;;;25.52;54.10;100726.88;5112491;28;20423;-77
2022/05/22 08:38:48;;;;;;;10.07;7.20;;;;;;;25.54;54.32;100729.41;5111752;28;20051;-75
2022/05/22 08:41:29;;;;;;;10.93;7.68;;;;;;;25.54;54.09;100729.41;5112989;28;20051;-75
2022/05/22 08:44:06;;;;;;;7.93;6.63;;;;;;;25.55;54.01;100731.91;5113896;28;20051;-75
2022/05/22 08:46:37;;;;;;;12.02;7.72;;;;;;;25.56;53.88;100735.47;5112994;28;20048;-75
2022/05/22 08:49:23;;;;;;;9.23;6.85;;;;;;;25.57;54.02;100740.75;5113327;28;20433;-75
2022/05/22 08:51:55;;;;;;;9.75;7.43;;;;;;;25.57;54.06;100727.19;5113961;28;20050;-75
2022/05/22 08:54:28;;;;;;;;;;;;;;;25.57;54.00;100724.47;5114542;28;20047;-74
2022/05/22 08:59:47;;;;;;;8.00;6.03;;;;;;;25.60;54.02;100723.25;5114081;28;20044;-75
2022/05/22 09:02:23;;;;;;;11.20;6.43;;;;;;;25.60;54.09;100724.13;5114009;28;20472;-75
2022/05/22 09:05:20;;;;;;;8.65;6.68;;;;;;;25.61;54.02;100731.25;5111425;28;20507;-74
2022/05/22 09:08:02;;;;;;;7.93;6.63;;;;;;;25.61;54.08;100730.41;5111757;28;20059;-75
2022/05/22 09:10:48;;;;;;;9.50;6.90;;;;;;;25.62;53.93;100730.22;5112493;28;20483;-75
2022/05/22 09:13:42;;;;;;;9.57;7.10;;;;;;;25.62;53.95;100729.38;5112191;28;20050;-74
2022/05/22 09:16:30;;;;;;;9.32;7.30;;;;;;;25.63;54.05;100739.19;5110416;28;20063;-75
2022/05/22 09:19:26;;;;;;;7.82;6.80;;;;;;;25.62;54.03;100738.34;5113384;28;20047;-74
2022/05/22 09:22:06;;;;;;;8.68;6.00;;;;;;;25.63;54.01;100745.44;5113543;28;20040;-75
2022/05/22 09:24:41;;;;;;;9.07;7.00;;;;;;;25.63;54.01;100742.72;5113654;28;20044;-75
2022/05/22 09:27:14;;;;;;;8.75;6.80;;;;;;;25.64;54.12;100746.28;5112531;28;20101;-74
2022/05/22 09:30:10;;;;;;;7.18;6.43;;;;;;;25.64;54.01;100744.44;5114304;28;20470;-75
2022/05/22 09:33:03;;;;;;;7.32;6.53;;;;;;;25.65;53.87;100737.16;5103851;28;20055;-75
2022/05/22 09:35:42;;;;;;;7.35;6.15;;;;;;;25.66;53.84;100738.84;5114932;28;20044;-75
2022/05/22 09:38:18;;;;;;;6.90;6.15;;;;;;;25.67;53.97;100736.97;5116656;28;20058;-75
2022/05/22 09:40:48;;;;;;;7.82;6.38;;;;;;;25.66;53.96;100733.41;5117328;28;20498;-74
2022/05/22 09:44:01;;;;;;;7.82;6.30;;;;;;;25.67;54.01;100731.53;5117539;28;20052;-75
2022/05/22 09:46:38;;;;;;;7.75;6.57;;;;;;;25.66;53.89;100719.84;5034553;28;20100;-75
2022/05/22 09:49:05;;;;;;;7.53;6.70;;;;;;;25.66;53.91;100714.44;5034476;28;20183;-75
2022/05/22 09:51:56;;;;;;;7.65;6.22;;;;;;;25.67;54.07;100715.28;5034854;28;20042;-75
2022/05/22 09:54:39;;;;;;;6.63;5.95;;;;;;;25.67;54.13;100713.41;5034135;28;20065;-74
2022/05/22 09:57:39;;;;;;;7.28;6.20;;;;;;;25.68;53.85;100711.53;5034916;28;20057;-75
2022/05/22 10:00:11;;;;;;;6.63;5.85;;;;;;;25.68;54.03;100712.38;5018264;28;20053;-74
2022/05/22 10:02:46;;;;;;;7.20;6.50;;;;;;;25.68;53.96;100701.53;5033823;28;20053;-75
2022/05/22 10:05:44;;;;;;;7.28;6.43;;;;;;;25.68;53.90;100706.94;5034092;28;20057;-74
2022/05/22 10:08:50;;;;;;;7.35;6.65;;;;;;;25.69;53.83;100699.69;5016860;28;20064;-74
2022/05/22 10:11:20;;;;;;;8.35;6.78;;;;;;;25.69;53.99;100707.81;5033623;28;20053;-75
2022/05/22 10:14:24;;;;;;;8.93;6.43;;;;;;;25.69;53.82;100700.53;5033437;28;20069;-75
2022/05/22 10:17:10;;;;;;;7.32;6.55;;;;;;;25.69;53.89;100705.97;5033799;28;20053;-75
2022/05/22 10:20:12;;;;;;;7.35;6.65;;;;;;;25.69;53.94;100699.69;5042261;28;20144;-75
2022/05/22 10:23:03;;;;;;;8.85;6.60;;;;;;;25.70;54.05;100687.81;5115921;28;20036;-75
2022/05/22 10:25:54;;;;;;;7.15;6.45;;;;;;;25.70;54.02;100687.81;5116398;28;20137;-74
2022/05/22 10:28:24;;;;;;;7.25;5.78;;;;;;;25.70;54.12;100685.09;5105668;28;20129;-75
2022/05/22 10:30:59;;;;;;;7.25;6.43;;;;;;;25.71;53.99;100682.22;5115938;28;20059;-75
2022/05/22 10:33:41;;;;;;;10.10;5.90;;;;;;;25.70;54.04;100685.94;5116562;28;20043;-74
2022/05/22 10:36:20;;;;;;;7.65;6.25;;;;;;;25.71;53.86;100681.38;5116152;28;20414;-75
2022/05/22 10:38:56;;;;;;;7.78;6.97;;;;;;;25.71;53.93;100675.94;5114241;28;20051;-74
2022/05/22 10:44:20;;;;;;;6.53;5.70;;;;;;;25.71;54.05;100676.78;5116359;28;20051;-75
2022/05/22 10:46:53;;;;;;;7.47;6.63;;;;;;;25.72;54.02;100685.75;5115635;28;20036;-75
2022/05/22 10:49:25;;;;;;;6.97;6.28;;;;;;;25.72;53.96;100678.47;5116239;28;20069;-75
2022/05/22 10:52:01;;;;;;;8.07;6.10;;;;;;;25.72;53.93;100681.19;5116141;28;20048;-75
2022/05/22 10:54:32;;;;;;;6.65;6.05;;;;;;;25.72;54.00;100677.63;5115955;28;20039;-74
2022/05/22 10:57:17;;;;;;;7.00;6.30;;;;;;;25.72;53.93;100673.03;5116289;28;20468;-74
2022/05/22 10:59:49;;;;;;;6.57;5.97;;;;;;;25.74;53.98;100675.59;5113577;28;20051;-74
2022/05/22 11:02:22;;;;;;;9.50;6.70;;;;;;;25.73;53.99;100674.75;5115173;28;20035;-75
2022/05/22 11:04:54;;;;;;;6.93;6.32;;;;;;;25.72;53.99;100673.03;5114927;28;20048;-74
2022/05/22 11:07:42;;;;;;;8.05;6.22;;;;;;;25.74;54.02;100678.31;5115978;28;20047;-75
2022/05/22 11:10:35;;;;;;;6.90;6.25;;;;;;;25.73;54.06;100673.91;5115664;28;20048;-75
2022/05/22 11:13:06;;;;;;;7.60;6.37;;;;;;;25.73;54.05;100674.75;5032895;28;20054;-75
2022/05/22 11:15:37;;;;;;;7.15;6.40;;;;;;;25.74;54.08;100664.75;5032698;28;20061;-75
2022/05/22 11:18:23;;;;;;;7.03;6.25;;;;;;;25.74;54.11;100672.88;5033053;28;20061;-74
2022/05/22 11:21:10;;;;;;;6.63;5.88;;;;;;;25.74;54.08;100675.59;5017114;28;20053;-74
2022/05/22 11:23:44;;;;;;;7.10;6.45;;;;;;;25.73;54.17;100663.91;5032855;28;20061;-75
2022/05/22 11:26:30;;;;;;;7.20;6.25;;;;;;;25.73;54.27;100663.06;5032749;28;20053;-75
2022/05/22 11:29:35;;;;;;;6.68;5.78;;;;;;;25.74;53.75;100659.31;5032185;28;20049;-74
2022/05/22 11:32:18;;;;;;;6.25;5.70;;;;;;;25.74;54.20;100656.63;5032784;28;20045;-75
2022/05/22 11:35:02;;;;;;;8.27;6.28;;;;;;;25.74;54.10;100656.63;5031794;28;20049;-75
2022/05/22 11:38:24;;;;;;;7.38;5.75;;;;;;;25.74;54.12;100646.59;5032074;28;20068;-75
2022/05/22 11:41:22;;;;;;;7.45;6.60;;;;;;;25.75;54.10;100645.56;5032676;28;20418;-74
2022/05/22 11:43:52;;;;;;;6.63;6.07;;;;;;;25.76;54.11;100646.41;5032059;28;20176;-74
2022/05/22 11:46:32;;;;;;;6.97;6.28;;;;;;;25.74;54.12;100641.19;5015171;28;20058;-74
2022/05/22 11:49:38;;;;;;;6.68;6.05;;;;;;;25.75;54.25;100634.72;5031876;28;20057;-74
2022/05/22 11:55:13;;;;;;;6.65;6.05;;;;;;;25.75;54.36;100621.19;5114287;28;20429;-75
2022/05/22 11:58:12;;;;;;;6.70;6.15;;;;;;;25.75;54.03;100620.34;5113735;28;20407;-74
2022/05/22 12:00:49;;;;;;;7.93;6.57;;;;;;;25.75;54.22;100613.03;5031644;28;20060;-75
2022/05/22 12:03:37;;;;;;;7.00;6.30;;;;;;;25.75;54.17;100609.50;5015684;28;20058;-74
2022/05/22 12:06:17;;;;;;;6.63;5.80;;;;;;;25.75;54.24;100607.63;5032005;28;20098;-75
2022/05/22 12:09:02;;;;;;;7.43;6.63;;;;;;;25.76;54.28;100598.44;5031746;28;20057;-74
2022/05/22 12:11:35;;;;;;;7.25;6.55;;;;;;;25.77;54.18;100599.31;5031762;28;20061;-75
2022/05/22 12:14:20;;;;;;;7.07;6.45;;;;;;;25.76;54.06;100593.03;5032156;28;20041;-74
2022/05/22 12:17:01;;;;;;;8.07;6.45;;;;;;;25.77;54.16;100593.91;5032781;28;20066;-75
2022/05/22 12:19:37;;;;;;;6.53;5.97;;;;;;;25.77;54.14;100591.19;5033593;28;20072;-74
2022/05/22 12:23:07;;;;;;;6.80;6.03;;;;;;;25.77;54.20;100577.63;5034023;28;20053;-75
2022/05/22 12:25:17;;;;;;;6.72;6.05;;;;;;;25.78;54.14;100579.34;5032813;28;20061;-74
2022/05/22 12:27:45;;;;;;;7.55;6.20;;;;;;;25.77;54.32;100573.06;5031586;28;20556;-75
2022/05/22 12:30:30;;;;;;;7.63;6.90;;;;;;;25.77;54.29;100564.94;5031676;28;20050;-75